sensor_id;sensor_type;location;lat;lon;timestamp;P1;durP1;ratioP1;P2;durP2;ratioP2
22883;SDS011;13386;24.786;110.488;2023-12-20T00:00:52;37.88;;;10.10;;
22883;SDS011;13386;24.786;110.488;2023-12-20T00:03:22;33.42;;;8.98;;
22883;SDS011;13386;24.786;110.488;2023-12-20T00:05:52;48.63;;;12.32;;
22883;SDS011;13386;24.786;110.488;2023-12-20T00:08:22;46.08;;;12.55;;
22883;SDS011;13386;24.786;110.488;2023-12-20T00:10:54;41.45;;;11.43;;
22883;SDS011;13386;24.786;110.488;2023-12-20T00:13:24;37.97;;;11.18;;
22883;SDS011;13386;24.786;110.488;2023-12-20T00:15:55;46.33;;;11.25;;
22883;SDS011;13386;24.786;110.488;2023-12-20T00:18:28;43.33;;;11.57;;
22883;SDS011;13386;24.786;110.488;2023-12-20T00:20:58;42.65;;;12.52;;
22883;SDS011;13386;24.786;110.488;2023-12-20T00:23:29;47.72;;;12.10;;
22883;SDS011;13386;24.786;110.488;2023-12-20T00:26:01;51.08;;;14.15;;
22883;SDS011;13386;24.786;110.488;2023-12-20T00:28:36;49.20;;;13.57;;
22883;SDS011;13386;24.786;110.488;2023-12-20T00:31:06;51.75;;;13.43;;
22883;SDS011;13386;24.786;110.488;2023-12-20T00:33:36;44.33;;;11.50;;
22883;SDS011;13386;24.786;110.488;2023-12-20T00:36:06;42.70;;;12.13;;
22883;SDS011;13386;24.786;110.488;2023-12-20T00:38:37;45.70;;;12.85;;
22883;SDS011;13386;24.786;110.488;2023-12-20T00:41:08;49.13;;;12.52;;
22883;SDS011;13386;24.786;110.488;2023-12-20T00:43:43;43.97;;;11.15;;
22883;SDS011;13386;24.786;110.488;2023-12-20T00:46:13;47.85;;;11.45;;
22883;SDS011;13386;24.786;110.488;2023-12-20T00:48:45;44.50;;;12.63;;
22883;SDS011;13386;24.786;110.488;2023-12-20T00:51:15;42.03;;;12.75;;
22883;SDS011;13386;24.786;110.488;2023-12-20T00:53:45;44.08;;;11.77;;
22883;SDS011;13386;24.786;110.488;2023-12-20T00:56:18;45.78;;;10.90;;
22883;SDS011;13386;24.786;110.488;2023-12-20T00:58:48;41.08;;;12.73;;
22883;SDS011;13386;24.786;110.488;2023-12-20T01:01:18;42.10;;;11.80;;
22883;SDS011;13386;24.786;110.488;2023-12-20T01:03:49;45.92;;;12.30;;
22883;SDS011;13386;24.786;110.488;2023-12-20T01:06:19;42.17;;;11.30;;
22883;SDS011;13386;24.786;110.488;2023-12-20T01:08:50;45.85;;;12.63;;
22883;SDS011;13386;24.786;110.488;2023-12-20T01:11:22;48.33;;;13.35;;
22883;SDS011;13386;24.786;110.488;2023-12-20T01:13:52;49.10;;;11.85;;
22883;SDS011;13386;24.786;110.488;2023-12-20T01:16:23;47.58;;;12.70;;
22883;SDS011;13386;24.786;110.488;2023-12-20T01:18:53;53.90;;;14.30;;
22883;SDS011;13386;24.786;110.488;2023-12-20T01:21:24;41.35;;;12.13;;
22883;SDS011;13386;24.786;110.488;2023-12-20T01:23:54;51.97;;;14.27;;
22883;SDS011;13386;24.786;110.488;2023-12-20T01:26:27;45.83;;;13.07;;
22883;SDS011;13386;24.786;110.488;2023-12-20T01:28:57;48.33;;;12.40;;
22883;SDS011;13386;24.786;110.488;2023-12-20T01:31:27;47.15;;;11.40;;
22883;SDS011;13386;24.786;110.488;2023-12-20T01:33:57;46.30;;;13.02;;
22883;SDS011;13386;24.786;110.488;2023-12-20T01:36:28;43.75;;;13.13;;
22883;SDS011;13386;24.786;110.488;2023-12-20T01:38:58;54.88;;;12.95;;
22883;SDS011;13386;24.786;110.488;2023-12-20T01:41:30;47.33;;;12.32;;
22883;SDS011;13386;24.786;110.488;2023-12-20T01:44:00;47.45;;;13.60;;
22883;SDS011;13386;24.786;110.488;2023-12-20T01:46:31;54.78;;;15.82;;
22883;SDS011;13386;24.786;110.488;2023-12-20T01:49:02;48.53;;;14.18;;
22883;SDS011;13386;24.786;110.488;2023-12-20T01:51:32;50.75;;;13.13;;
22883;SDS011;13386;24.786;110.488;2023-12-20T01:54:03;51.50;;;12.23;;
22883;SDS011;13386;24.786;110.488;2023-12-20T01:56:35;53.78;;;13.27;;
22883;SDS011;13386;24.786;110.488;2023-12-20T01:59:09;50.03;;;12.73;;
22883;SDS011;13386;24.786;110.488;2023-12-20T02:01:40;62.30;;;13.82;;
22883;SDS011;13386;24.786;110.488;2023-12-20T02:04:10;49.15;;;13.13;;
22883;SDS011;13386;24.786;110.488;2023-12-20T02:06:40;44.45;;;11.65;;
22883;SDS011;13386;24.786;110.488;2023-12-20T02:09:10;47.78;;;13.43;;
22883;SDS011;13386;24.786;110.488;2023-12-20T02:11:42;54.38;;;13.60;;
22883;SDS011;13386;24.786;110.488;2023-12-20T02:14:13;48.65;;;14.52;;
22883;SDS011;13386;24.786;110.488;2023-12-20T02:16:43;46.25;;;13.45;;
22883;SDS011;13386;24.786;110.488;2023-12-20T02:19:13;50.03;;;13.13;;
22883;SDS011;13386;24.786;110.488;2023-12-20T02:21:45;48.53;;;14.60;;
22883;SDS011;13386;24.786;110.488;2023-12-20T02:24:22;53.58;;;13.60;;
22883;SDS011;13386;24.786;110.488;2023-12-20T02:26:52;57.15;;;14.52;;
22883;SDS011;13386;24.786;110.488;2023-12-20T02:29:22;63.35;;;15.15;;
22883;SDS011;13386;24.786;110.488;2023-12-20T02:31:52;65.75;;;16.48;;
22883;SDS011;13386;24.786;110.488;2023-12-20T02:34:22;42.42;;;12.80;;
22883;SDS011;13386;24.786;110.488;2023-12-20T02:36:54;55.40;;;14.32;;
22883;SDS011;13386;24.786;110.488;2023-12-20T02:39:24;50.10;;;13.23;;
22883;SDS011;13386;24.786;110.488;2023-12-20T02:41:55;50.60;;;13.68;;
22883;SDS011;13386;24.786;110.488;2023-12-20T02:44:25;60.75;;;16.50;;
22883;SDS011;13386;24.786;110.488;2023-12-20T02:46:57;46.05;;;12.88;;
22883;SDS011;13386;24.786;110.488;2023-12-20T02:49:27;45.42;;;12.43;;
22883;SDS011;13386;24.786;110.488;2023-12-20T02:51:59;47.28;;;12.52;;
22883;SDS011;13386;24.786;110.488;2023-12-20T02:54:29;55.30;;;13.65;;
22883;SDS011;13386;24.786;110.488;2023-12-20T02:57:02;55.35;;;12.55;;
22883;SDS011;13386;24.786;110.488;2023-12-20T02:59:32;54.55;;;16.15;;
22883;SDS011;13386;24.786;110.488;2023-12-20T03:02:02;46.20;;;13.27;;
22883;SDS011;13386;24.786;110.488;2023-12-20T03:04:32;44.78;;;12.25;;
22883;SDS011;13386;24.786;110.488;2023-12-20T03:07:04;43.40;;;13.15;;
22883;SDS011;13386;24.786;110.488;2023-12-20T03:09:35;45.78;;;13.27;;
22883;SDS011;13386;24.786;110.488;2023-12-20T03:12:14;49.70;;;13.32;;
22883;SDS011;13386;24.786;110.488;2023-12-20T03:14:44;48.95;;;13.52;;
22883;SDS011;13386;24.786;110.488;2023-12-20T03:17:14;47.65;;;12.38;;
22883;SDS011;13386;24.786;110.488;2023-12-20T03:19:44;51.55;;;13.95;;
22883;SDS011;13386;24.786;110.488;2023-12-20T03:22:16;49.92;;;14.55;;
22883;SDS011;13386;24.786;110.488;2023-12-20T03:24:46;53.17;;;14.43;;
22883;SDS011;13386;24.786;110.488;2023-12-20T03:27:16;44.70;;;11.40;;
22883;SDS011;13386;24.786;110.488;2023-12-20T03:29:46;51.60;;;14.13;;
22883;SDS011;13386;24.786;110.488;2023-12-20T03:32:17;47.38;;;12.82;;
22883;SDS011;13386;24.786;110.488;2023-12-20T03:34:50;42.92;;;11.68;;
22883;SDS011;13386;24.786;110.488;2023-12-20T03:37:22;44.58;;;11.98;;
22883;SDS011;13386;24.786;110.488;2023-12-20T03:39:52;46.28;;;12.00;;
22883;SDS011;13386;24.786;110.488;2023-12-20T03:42:22;45.53;;;13.70;;
22883;SDS011;13386;24.786;110.488;2023-12-20T03:44:53;42.95;;;12.07;;
22883;SDS011;13386;24.786;110.488;2023-12-20T03:47:23;49.17;;;13.15;;
22883;SDS011;13386;24.786;110.488;2023-12-20T03:49:54;40.63;;;12.50;;
22883;SDS011;13386;24.786;110.488;2023-12-20T03:52:26;39.65;;;12.48;;
22883;SDS011;13386;24.786;110.488;2023-12-20T03:54:57;46.70;;;12.45;;
22883;SDS011;13386;24.786;110.488;2023-12-20T03:57:27;41.72;;;12.75;;
22883;SDS011;13386;24.786;110.488;2023-12-20T03:59:59;44.65;;;11.98;;
22883;SDS011;13386;24.786;110.488;2023-12-20T04:02:38;45.05;;;12.45;;
22883;SDS011;13386;24.786;110.488;2023-12-20T04:05:14;47.35;;;11.48;;
22883;SDS011;13386;24.786;110.488;2023-12-20T04:07:46;40.20;;;12.15;;
22883;SDS011;13386;24.786;110.488;2023-12-20T04:10:17;47.65;;;12.23;;
22883;SDS011;13386;24.786;110.488;2023-12-20T04:12:47;40.45;;;10.80;;
22883;SDS011;13386;24.786;110.488;2023-12-20T04:15:22;47.20;;;13.23;;
22883;SDS011;13386;24.786;110.488;2023-12-20T04:17:52;45.58;;;14.00;;
22883;SDS011;13386;24.786;110.488;2023-12-20T04:20:25;46.85;;;13.05;;
22883;SDS011;13386;24.786;110.488;2023-12-20T04:22:57;51.50;;;14.52;;
22883;SDS011;13386;24.786;110.488;2023-12-20T04:25:30;49.80;;;13.68;;
22883;SDS011;13386;24.786;110.488;2023-12-20T04:28:01;41.85;;;11.55;;
22883;SDS011;13386;24.786;110.488;2023-12-20T04:30:31;51.85;;;13.30;;
22883;SDS011;13386;24.786;110.488;2023-12-20T04:33:01;44.63;;;12.63;;
22883;SDS011;13386;24.786;110.488;2023-12-20T04:35:31;39.08;;;11.23;;
22883;SDS011;13386;24.786;110.488;2023-12-20T04:38:03;43.75;;;11.13;;
22883;SDS011;13386;24.786;110.488;2023-12-20T04:40:34;37.95;;;11.23;;
22883;SDS011;13386;24.786;110.488;2023-12-20T04:43:04;46.17;;;13.20;;
22883;SDS011;13386;24.786;110.488;2023-12-20T04:45:34;48.92;;;13.15;;
22883;SDS011;13386;24.786;110.488;2023-12-20T04:48:04;44.38;;;13.13;;
22883;SDS011;13386;24.786;110.488;2023-12-20T04:50:34;42.85;;;13.55;;
22883;SDS011;13386;24.786;110.488;2023-12-20T04:53:06;41.17;;;12.10;;
22883;SDS011;13386;24.786;110.488;2023-12-20T04:55:41;45.50;;;11.77;;
22883;SDS011;13386;24.786;110.488;2023-12-20T04:58:11;42.17;;;11.20;;
22883;SDS011;13386;24.786;110.488;2023-12-20T05:00:41;40.55;;;10.80;;
22883;SDS011;13386;24.786;110.488;2023-12-20T05:03:11;44.75;;;11.57;;
22883;SDS011;13386;24.786;110.488;2023-12-20T05:05:41;44.70;;;11.93;;
22883;SDS011;13386;24.786;110.488;2023-12-20T05:08:13;43.92;;;11.27;;
22883;SDS011;13386;24.786;110.488;2023-12-20T05:10:43;43.65;;;11.77;;
22883;SDS011;13386;24.786;110.488;2023-12-20T05:13:13;40.45;;;12.02;;
22883;SDS011;13386;24.786;110.488;2023-12-20T05:15:44;41.17;;;11.15;;
22883;SDS011;13386;24.786;110.488;2023-12-20T05:18:14;39.42;;;10.75;;
22883;SDS011;13386;24.786;110.488;2023-12-20T05:20:44;35.33;;;10.38;;
22883;SDS011;13386;24.786;110.488;2023-12-20T05:23:17;30.98;;;9.57;;
22883;SDS011;13386;24.786;110.488;2023-12-20T05:25:48;40.55;;;10.98;;
22883;SDS011;13386;24.786;110.488;2023-12-20T05:28:19;40.50;;;10.07;;
22883;SDS011;13386;24.786;110.488;2023-12-20T05:30:49;37.15;;;9.95;;
22883;SDS011;13386;24.786;110.488;2023-12-20T05:33:19;37.15;;;10.52;;
22883;SDS011;13386;24.786;110.488;2023-12-20T05:35:49;35.85;;;10.68;;
22883;SDS011;13386;24.786;110.488;2023-12-20T05:38:23;37.53;;;11.30;;
22883;SDS011;13386;24.786;110.488;2023-12-20T05:40:53;36.20;;;9.75;;
22883;SDS011;13386;24.786;110.488;2023-12-20T05:43:24;41.40;;;11.02;;
22883;SDS011;13386;24.786;110.488;2023-12-20T05:45:54;35.53;;;9.07;;
22883;SDS011;13386;24.786;110.488;2023-12-20T05:48:24;30.42;;;9.23;;
22883;SDS011;13386;24.786;110.488;2023-12-20T05:50:55;36.90;;;10.23;;
22883;SDS011;13386;24.786;110.488;2023-12-20T05:53:29;33.03;;;9.45;;
22883;SDS011;13386;24.786;110.488;2023-12-20T05:55:59;37.20;;;9.32;;
22883;SDS011;13386;24.786;110.488;2023-12-20T05:58:31;33.83;;;9.00;;
22883;SDS011;13386;24.786;110.488;2023-12-20T06:01:03;35.15;;;9.25;;
22883;SDS011;13386;24.786;110.488;2023-12-20T06:03:35;33.60;;;8.75;;
22883;SDS011;13386;24.786;110.488;2023-12-20T06:06:06;32.47;;;9.00;;
22883;SDS011;13386;24.786;110.488;2023-12-20T06:08:41;35.40;;;10.13;;
22883;SDS011;13386;24.786;110.488;2023-12-20T06:11:11;32.15;;;9.23;;
22883;SDS011;13386;24.786;110.488;2023-12-20T06:13:42;35.75;;;10.30;;
22883;SDS011;13386;24.786;110.488;2023-12-20T06:16:12;35.55;;;9.10;;
22883;SDS011;13386;24.786;110.488;2023-12-20T06:18:48;27.75;;;8.70;;
22883;SDS011;13386;24.786;110.488;2023-12-20T06:21:18;34.78;;;9.38;;
22883;SDS011;13386;24.786;110.488;2023-12-20T06:23:54;30.50;;;8.15;;
22883;SDS011;13386;24.786;110.488;2023-12-20T06:26:24;33.63;;;8.52;;
22883;SDS011;13386;24.786;110.488;2023-12-20T06:28:57;37.55;;;8.43;;
22883;SDS011;13386;24.786;110.488;2023-12-20T06:31:28;34.42;;;8.70;;
22883;SDS011;13386;24.786;110.488;2023-12-20T06:33:59;25.88;;;7.55;;
22883;SDS011;13386;24.786;110.488;2023-12-20T06:36:30;34.53;;;8.40;;
22883;SDS011;13386;24.786;110.488;2023-12-20T06:39:01;32.92;;;8.63;;
22883;SDS011;13386;24.786;110.488;2023-12-20T06:41:32;35.35;;;8.60;;
22883;SDS011;13386;24.786;110.488;2023-12-20T06:44:02;26.15;;;7.40;;
22883;SDS011;13386;24.786;110.488;2023-12-20T06:46:32;24.58;;;7.57;;
22883;SDS011;13386;24.786;110.488;2023-12-20T06:49:05;36.10;;;9.25;;
22883;SDS011;13386;24.786;110.488;2023-12-20T06:51:36;27.70;;;8.38;;
22883;SDS011;13386;24.786;110.488;2023-12-20T06:54:08;25.55;;;7.90;;
22883;SDS011;13386;24.786;110.488;2023-12-20T06:56:39;29.75;;;7.90;;
22883;SDS011;13386;24.786;110.488;2023-12-20T06:59:10;24.92;;;7.47;;
22883;SDS011;13386;24.786;110.488;2023-12-20T07:01:40;30.80;;;7.35;;
22883;SDS011;13386;24.786;110.488;2023-12-20T07:04:31;30.38;;;8.48;;
22883;SDS011;13386;24.786;110.488;2023-12-20T07:07:01;24.92;;;7.10;;
22883;SDS011;13386;24.786;110.488;2023-12-20T07:09:34;27.30;;;7.10;;
22883;SDS011;13386;24.786;110.488;2023-12-20T07:12:05;28.63;;;7.60;;
22883;SDS011;13386;24.786;110.488;2023-12-20T07:14:35;43.78;;;11.02;;
22883;SDS011;13386;24.786;110.488;2023-12-20T07:17:06;38.92;;;9.07;;
22883;SDS011;13386;24.786;110.488;2023-12-20T07:19:39;29.13;;;8.55;;
22883;SDS011;13386;24.786;110.488;2023-12-20T07:22:09;30.10;;;8.68;;
22883;SDS011;13386;24.786;110.488;2023-12-20T07:24:41;33.38;;;9.50;;
22883;SDS011;13386;24.786;110.488;2023-12-20T07:27:11;33.17;;;9.82;;
22883;SDS011;13386;24.786;110.488;2023-12-20T07:29:41;30.00;;;8.48;;
22883;SDS011;13386;24.786;110.488;2023-12-20T07:32:11;29.05;;;7.95;;
22883;SDS011;13386;24.786;110.488;2023-12-20T07:34:41;31.77;;;9.35;;
22883;SDS011;13386;24.786;110.488;2023-12-20T07:37:12;32.17;;;10.38;;
22883;SDS011;13386;24.786;110.488;2023-12-20T07:39:50;34.65;;;9.80;;
22883;SDS011;13386;24.786;110.488;2023-12-20T07:42:20;35.72;;;10.63;;
22883;SDS011;13386;24.786;110.488;2023-12-20T07:44:50;38.25;;;9.75;;
22883;SDS011;13386;24.786;110.488;2023-12-20T07:47:20;33.30;;;10.70;;
22883;SDS011;13386;24.786;110.488;2023-12-20T07:52:25;35.72;;;9.27;;
22883;SDS011;13386;24.786;110.488;2023-12-20T07:54:57;39.80;;;11.82;;
22883;SDS011;13386;24.786;110.488;2023-12-20T07:57:28;34.72;;;10.68;;
22883;SDS011;13386;24.786;110.488;2023-12-20T08:00:00;35.90;;;11.13;;
22883;SDS011;13386;24.786;110.488;2023-12-20T08:02:31;33.33;;;11.13;;
22883;SDS011;13386;24.786;110.488;2023-12-20T08:05:01;39.92;;;11.82;;
22883;SDS011;13386;24.786;110.488;2023-12-20T08:07:31;38.38;;;11.18;;
22883;SDS011;13386;24.786;110.488;2023-12-20T08:10:03;36.90;;;11.13;;
22883;SDS011;13386;24.786;110.488;2023-12-20T08:12:33;33.63;;;10.52;;
22883;SDS011;13386;24.786;110.488;2023-12-20T08:15:04;33.88;;;10.40;;
22883;SDS011;13386;24.786;110.488;2023-12-20T08:17:34;30.13;;;9.07;;
22883;SDS011;13386;24.786;110.488;2023-12-20T08:20:04;25.10;;;7.43;;
22883;SDS011;13386;24.786;110.488;2023-12-20T08:22:35;30.67;;;9.52;;
22883;SDS011;13386;24.786;110.488;2023-12-20T08:25:07;32.88;;;10.02;;
22883;SDS011;13386;24.786;110.488;2023-12-20T08:27:39;33.13;;;10.05;;
22883;SDS011;13386;24.786;110.488;2023-12-20T08:30:09;34.30;;;10.45;;
22883;SDS011;13386;24.786;110.488;2023-12-20T08:32:40;36.08;;;10.60;;
22883;SDS011;13386;24.786;110.488;2023-12-20T08:35:10;36.58;;;10.25;;
22883;SDS011;13386;24.786;110.488;2023-12-20T08:37:40;36.25;;;10.45;;
22883;SDS011;13386;24.786;110.488;2023-12-20T08:40:12;41.45;;;10.52;;
22883;SDS011;13386;24.786;110.488;2023-12-20T08:42:42;30.88;;;9.80;;
22883;SDS011;13386;24.786;110.488;2023-12-20T08:45:12;36.10;;;9.82;;
22883;SDS011;13386;24.786;110.488;2023-12-20T08:47:43;35.90;;;9.70;;
22883;SDS011;13386;24.786;110.488;2023-12-20T08:50:16;35.53;;;9.88;;
22883;SDS011;13386;24.786;110.488;2023-12-20T08:52:46;31.52;;;8.75;;
22883;SDS011;13386;24.786;110.488;2023-12-20T08:55:18;32.30;;;9.52;;
22883;SDS011;13386;24.786;110.488;2023-12-20T08:57:48;27.55;;;9.25;;
22883;SDS011;13386;24.786;110.488;2023-12-20T09:00:19;33.42;;;10.63;;
22883;SDS011;13386;24.786;110.488;2023-12-20T09:02:51;36.17;;;9.77;;
22883;SDS011;13386;24.786;110.488;2023-12-20T09:05:21;37.45;;;9.88;;
22883;SDS011;13386;24.786;110.488;2023-12-20T09:07:51;27.60;;;8.60;;
22883;SDS011;13386;24.786;110.488;2023-12-20T09:10:23;35.85;;;9.27;;
22883;SDS011;13386;24.786;110.488;2023-12-20T09:12:53;37.85;;;10.43;;
22883;SDS011;13386;24.786;110.488;2023-12-20T09:15:24;41.40;;;10.90;;
22883;SDS011;13386;24.786;110.488;2023-12-20T09:17:54;35.15;;;9.75;;
22883;SDS011;13386;24.786;110.488;2023-12-20T09:20:25;35.90;;;10.65;;
22883;SDS011;13386;24.786;110.488;2023-12-20T09:22:55;39.17;;;10.75;;
22883;SDS011;13386;24.786;110.488;2023-12-20T09:25:27;36.28;;;9.93;;
22883;SDS011;13386;24.786;110.488;2023-12-20T09:27:58;35.65;;;10.27;;
22883;SDS011;13386;24.786;110.488;2023-12-20T09:30:28;35.17;;;9.85;;
22883;SDS011;13386;24.786;110.488;2023-12-20T09:32:58;37.10;;;10.77;;
22883;SDS011;13386;24.786;110.488;2023-12-20T09:35:28;44.05;;;10.18;;
22883;SDS011;13386;24.786;110.488;2023-12-20T09:37:59;43.72;;;10.93;;
22883;SDS011;13386;24.786;110.488;2023-12-20T09:40:31;35.47;;;10.05;;
22883;SDS011;13386;24.786;110.488;2023-12-20T09:43:03;36.30;;;10.57;;
22883;SDS011;13386;24.786;110.488;2023-12-20T09:45:33;41.67;;;10.85;;
22883;SDS011;13386;24.786;110.488;2023-12-20T09:48:04;34.13;;;10.13;;
22883;SDS011;13386;24.786;110.488;2023-12-20T09:50:34;38.42;;;11.15;;
22883;SDS011;13386;24.786;110.488;2023-12-20T09:53:04;36.53;;;10.63;;
22883;SDS011;13386;24.786;110.488;2023-12-20T09:55:37;40.35;;;11.15;;
22883;SDS011;13386;24.786;110.488;2023-12-20T09:58:08;36.83;;;11.82;;
22883;SDS011;13386;24.786;110.488;2023-12-20T10:00:38;41.28;;;10.82;;
22883;SDS011;13386;24.786;110.488;2023-12-20T10:03:08;39.90;;;11.07;;
22883;SDS011;13386;24.786;110.488;2023-12-20T10:05:38;39.88;;;10.52;;
22883;SDS011;13386;24.786;110.488;2023-12-20T10:08:09;71.47;;;15.30;;
22883;SDS011;13386;24.786;110.488;2023-12-20T10:10:41;60.42;;;17.25;;
22883;SDS011;13386;24.786;110.488;2023-12-20T10:13:11;53.00;;;14.30;;
22883;SDS011;13386;24.786;110.488;2023-12-20T10:15:42;72.15;;;16.60;;
22883;SDS011;13386;24.786;110.488;2023-12-20T10:18:12;58.95;;;13.65;;
22883;SDS011;13386;24.786;110.488;2023-12-20T10:20:42;115.97;;;27.33;;
22883;SDS011;13386;24.786;110.488;2023-12-20T10:23:12;64.53;;;14.18;;
22883;SDS011;13386;24.786;110.488;2023-12-20T10:25:47;47.92;;;12.40;;
22883;SDS011;13386;24.786;110.488;2023-12-20T10:28:19;67.82;;;13.70;;
22883;SDS011;13386;24.786;110.488;2023-12-20T10:30:52;45.35;;;11.73;;
22883;SDS011;13386;24.786;110.488;2023-12-20T10:33:24;46.72;;;11.93;;
22883;SDS011;13386;24.786;110.488;2023-12-20T10:35:55;53.70;;;12.70;;
22883;SDS011;13386;24.786;110.488;2023-12-20T10:38:25;39.65;;;11.07;;
22883;SDS011;13386;24.786;110.488;2023-12-20T10:40:59;44.22;;;11.88;;
22883;SDS011;13386;24.786;110.488;2023-12-20T10:43:29;47.58;;;11.40;;
22883;SDS011;13386;24.786;110.488;2023-12-20T10:46:00;38.00;;;10.95;;
22883;SDS011;13386;24.786;110.488;2023-12-20T10:48:30;68.47;;;17.77;;
22883;SDS011;13386;24.786;110.488;2023-12-20T10:51:00;47.83;;;12.68;;
22883;SDS011;13386;24.786;110.488;2023-12-20T10:53:31;47.25;;;13.98;;
22883;SDS011;13386;24.786;110.488;2023-12-20T10:56:05;62.05;;;16.35;;
22883;SDS011;13386;24.786;110.488;2023-12-20T10:58:35;51.83;;;14.48;;
22883;SDS011;13386;24.786;110.488;2023-12-20T11:01:07;46.45;;;12.82;;
22883;SDS011;13386;24.786;110.488;2023-12-20T11:03:37;42.67;;;11.82;;
22883;SDS011;13386;24.786;110.488;2023-12-20T11:06:08;40.08;;;11.52;;
22883;SDS011;13386;24.786;110.488;2023-12-20T11:08:42;43.25;;;11.55;;
22883;SDS011;13386;24.786;110.488;2023-12-20T11:11:20;47.70;;;11.98;;
22883;SDS011;13386;24.786;110.488;2023-12-20T11:13:54;44.63;;;11.95;;
22883;SDS011;13386;24.786;110.488;2023-12-20T11:16:26;41.45;;;13.02;;
22883;SDS011;13386;24.786;110.488;2023-12-20T11:18:56;74.53;;;18.00;;
22883;SDS011;13386;24.786;110.488;2023-12-20T11:21:26;48.88;;;14.32;;
22883;SDS011;13386;24.786;110.488;2023-12-20T11:24:01;51.03;;;13.63;;
22883;SDS011;13386;24.786;110.488;2023-12-20T11:26:33;56.78;;;16.48;;
22883;SDS011;13386;24.786;110.488;2023-12-20T11:31:57;51.28;;;14.95;;
22883;SDS011;13386;24.786;110.488;2023-12-20T11:34:32;43.50;;;13.25;;
22883;SDS011;13386;24.786;110.488;2023-12-20T11:37:03;79.65;;;20.10;;
22883;SDS011;13386;24.786;110.488;2023-12-20T11:39:35;80.35;;;21.02;;
22883;SDS011;13386;24.786;110.488;2023-12-20T11:42:07;75.13;;;20.75;;
22883;SDS011;13386;24.786;110.488;2023-12-20T11:44:38;52.83;;;14.73;;
22883;SDS011;13386;24.786;110.488;2023-12-20T11:47:08;54.60;;;16.02;;
22883;SDS011;13386;24.786;110.488;2023-12-20T11:49:41;53.78;;;14.85;;
22883;SDS011;13386;24.786;110.488;2023-12-20T11:52:12;50.22;;;14.38;;
22883;SDS011;13386;24.786;110.488;2023-12-20T11:54:43;71.05;;;19.33;;
22883;SDS011;13386;24.786;110.488;2023-12-20T11:57:15;71.18;;;20.33;;
22883;SDS011;13386;24.786;110.488;2023-12-20T11:59:45;63.28;;;17.52;;
22883;SDS011;13386;24.786;110.488;2023-12-20T12:02:15;55.58;;;15.77;;
22883;SDS011;13386;24.786;110.488;2023-12-20T12:04:46;52.47;;;15.20;;
22883;SDS011;13386;24.786;110.488;2023-12-20T12:07:18;50.38;;;14.27;;
22883;SDS011;13386;24.786;110.488;2023-12-20T12:09:49;63.55;;;17.80;;
22883;SDS011;13386;24.786;110.488;2023-12-20T12:12:21;82.57;;;22.52;;
22883;SDS011;13386;24.786;110.488;2023-12-20T12:14:52;73.15;;;19.10;;
22883;SDS011;13386;24.786;110.488;2023-12-20T12:17:23;62.92;;;15.68;;
22883;SDS011;13386;24.786;110.488;2023-12-20T12:20:01;48.75;;;14.13;;
22883;SDS011;13386;24.786;110.488;2023-12-20T12:22:31;83.35;;;22.15;;
22883;SDS011;13386;24.786;110.488;2023-12-20T12:25:09;84.47;;;23.45;;
22883;SDS011;13386;24.786;110.488;2023-12-20T12:27:44;56.50;;;16.25;;
22883;SDS011;13386;24.786;110.488;2023-12-20T12:30:15;53.40;;;15.60;;
22883;SDS011;13386;24.786;110.488;2023-12-20T12:32:47;62.78;;;16.23;;
22883;SDS011;13386;24.786;110.488;2023-12-20T12:35:17;54.28;;;16.42;;
22883;SDS011;13386;24.786;110.488;2023-12-20T12:37:49;53.72;;;16.70;;
22883;SDS011;13386;24.786;110.488;2023-12-20T12:40:21;59.30;;;17.48;;
22883;SDS011;13386;24.786;110.488;2023-12-20T12:42:53;59.03;;;18.25;;
22883;SDS011;13386;24.786;110.488;2023-12-20T12:45:23;54.67;;;15.93;;
22883;SDS011;13386;24.786;110.488;2023-12-20T12:47:54;64.13;;;19.20;;
22883;SDS011;13386;24.786;110.488;2023-12-20T12:50:24;55.47;;;15.75;;
22883;SDS011;13386;24.786;110.488;2023-12-20T12:52:55;48.00;;;14.45;;
22883;SDS011;13386;24.786;110.488;2023-12-20T12:55:25;47.38;;;14.02;;
22883;SDS011;13386;24.786;110.488;2023-12-20T12:58:02;56.20;;;16.25;;
22883;SDS011;13386;24.786;110.488;2023-12-20T13:00:32;71.13;;;19.17;;
22883;SDS011;13386;24.786;110.488;2023-12-20T13:03:05;57.22;;;16.23;;
22883;SDS011;13386;24.786;110.488;2023-12-20T13:05:36;64.47;;;18.10;;
22883;SDS011;13386;24.786;110.488;2023-12-20T13:08:06;54.55;;;16.92;;
22883;SDS011;13386;24.786;110.488;2023-12-20T13:10:41;55.25;;;15.75;;
22883;SDS011;13386;24.786;110.488;2023-12-20T13:13:13;53.65;;;14.95;;
22883;SDS011;13386;24.786;110.488;2023-12-20T13:15:43;88.47;;;22.80;;
22883;SDS011;13386;24.786;110.488;2023-12-20T13:18:17;57.75;;;17.48;;
22883;SDS011;13386;24.786;110.488;2023-12-20T13:20:48;88.22;;;25.02;;
22883;SDS011;13386;24.786;110.488;2023-12-20T13:23:19;75.90;;;21.98;;
22883;SDS011;13386;24.786;110.488;2023-12-20T13:25:49;80.20;;;23.55;;
22883;SDS011;13386;24.786;110.488;2023-12-20T13:28:21;81.47;;;22.73;;
22883;SDS011;13386;24.786;110.488;2023-12-20T13:30:51;105.60;;;29.50;;
22883;SDS011;13386;24.786;110.488;2023-12-20T13:33:22;78.22;;;23.23;;
22883;SDS011;13386;24.786;110.488;2023-12-20T13:35:52;76.95;;;21.52;;
22883;SDS011;13386;24.786;110.488;2023-12-20T13:38:22;82.25;;;21.55;;
22883;SDS011;13386;24.786;110.488;2023-12-20T13:40:53;70.75;;;20.75;;
22883;SDS011;13386;24.786;110.488;2023-12-20T13:43:27;191.82;;;49.05;;
22883;SDS011;13386;24.786;110.488;2023-12-20T13:45:57;101.40;;;30.15;;
22883;SDS011;13386;24.786;110.488;2023-12-20T13:48:27;62.03;;;19.02;;
22883;SDS011;13386;24.786;110.488;2023-12-20T13:50:58;74.40;;;20.98;;
22883;SDS011;13386;24.786;110.488;2023-12-20T13:53:30;151.10;;;39.65;;
22883;SDS011;13386;24.786;110.488;2023-12-20T13:56:00;114.72;;;31.92;;
22883;SDS011;13386;24.786;110.488;2023-12-20T13:58:32;121.43;;;34.10;;
22883;SDS011;13386;24.786;110.488;2023-12-20T14:01:02;112.90;;;28.85;;
22883;SDS011;13386;24.786;110.488;2023-12-20T14:03:32;57.30;;;18.88;;
22883;SDS011;13386;24.786;110.488;2023-12-20T14:06:02;57.13;;;16.77;;
22883;SDS011;13386;24.786;110.488;2023-12-20T14:08:32;54.42;;;15.77;;
22883;SDS011;13386;24.786;110.488;2023-12-20T14:11:03;70.05;;;19.98;;
22883;SDS011;13386;24.786;110.488;2023-12-20T14:13:35;54.15;;;15.45;;
22883;SDS011;13386;24.786;110.488;2023-12-20T14:16:05;60.80;;;18.15;;
22883;SDS011;13386;24.786;110.488;2023-12-20T14:18:36;62.58;;;16.88;;
22883;SDS011;13386;24.786;110.488;2023-12-20T14:21:07;83.97;;;24.98;;
22883;SDS011;13386;24.786;110.488;2023-12-20T14:23:38;125.80;;;33.83;;
22883;SDS011;13386;24.786;110.488;2023-12-20T14:26:08;122.00;;;32.65;;